Time;durP1;ratioP1;P1;durP2;ratioP2;P2;SDS_P1;SDS_P2;PMS_P1;PMS_P2;Temp;Humidity;BMP_temperature;BMP_pressure;BME280_temperature;BME280_humidity;BME280_pressure;Samples;Min_cycle;Max_cycle;Signal;HPM_P1;HPM_P2
2023/04/19 00:02:18;;;;;;;1.75;0.57;;;;;;;9.23;51.42;103539.84;5054779;28;20033;-69
2023/04/19 00:04:46;;;;;;;3.03;1.40;;;;;;;9.22;51.60;103537.28;5052915;28;20025;-69
2023/04/19 00:07:12;;;;;;;3.60;0.80;;;;;;;9.20;52.06;103540.06;5054489;28;20028;-69
2023/04/19 00:09:38;;;;;;;4.22;0.68;;;;;;;9.02;51.95;103501.28;5055346;28;20051;-68
2023/04/19 00:12:03;;;;;;;1.80;0.80;;;;;;;9.15;52.29;103539.59;5051983;28;20033;-68
2023/04/19 00:14:29;;;;;;;4.60;0.85;;;;;;;9.10;52.18;103534.59;5053409;28;20365;-68
2023/04/19 00:16:54;;;;;;;2.00;0.65;;;;;;;9.04;52.30;103531.53;5054441;28;20024;-68
2023/04/19 00:19:21;;;;;;;3.38;0.80;;;;;;;9.00;52.42;103535.44;5036223;28;20053;-68
2023/04/19 00:21:46;;;;;;;1.77;0.60;;;;;;;8.97;52.80;103543.75;5053099;28;20029;-68
2023/04/19 00:24:12;;;;;;;0.85;0.50;;;;;;;8.92;52.96;103539.59;5053089;28;20376;-68
2023/04/19 00:26:37;;;;;;;1.38;0.70;;;;;;;8.86;53.26;103534.72;5053118;28;20106;-68
2023/04/19 00:29:03;;;;;;;1.90;0.63;;;;;;;8.84;52.60;103536.69;5052545;28;20423;-68
2023/04/19 00:31:29;;;;;;;1.20;0.60;;;;;;;8.78;52.77;103541.66;5054322;28;20048;-68
2023/04/19 00:33:55;;;;;;;1.52;0.60;;;;;;;8.71;52.81;103533.25;5054160;28;20031;-68
2023/04/19 00:36:21;;;;;;;3.20;0.57;;;;;;;8.55;53.68;103514.78;5053988;28;20048;-68
2023/04/19 00:38:46;;;;;;;1.80;0.50;;;;;;;8.58;53.83;103521.75;5052786;28;20079;-68
2023/04/19 00:41:11;;;;;;;3.92;0.70;;;;;;;8.60;53.70;103523.31;5053096;28;20029;-68
2023/04/19 00:43:37;;;;;;;1.35;0.70;;;;;;;8.55;54.11;103527.34;5052480;28;20025;-68
2023/04/19 00:46:04;;;;;;;2.60;0.63;;;;;;;8.49;55.07;103520.63;5053957;28;20083;-68
2023/04/19 00:48:29;;;;;;;0.88;0.70;;;;;;;8.55;53.56;103528.22;5052362;28;20067;-69
2023/04/19 00:50:55;;;;;;;2.45;0.70;;;;;;;8.53;54.13;103526.63;5054122;28;20016;-68
2023/04/19 00:53:21;;;;;;;1.33;0.70;;;;;;;8.48;54.57;103535.03;5052592;28;20021;-68
2023/04/19 00:55:49;;;;;;;1.98;0.70;;;;;;;8.26;54.99;103527.72;5052280;28;20384;-69
2023/04/19 00:58:16;;;;;;;1.45;0.60;;;;;;;8.24;55.14;103529.66;5052346;28;20115;-68
2023/04/19 01:00:43;;;;;;;1.17;0.70;;;;;;;8.18;55.32;103531.00;5052472;28;20127;-68
2023/04/19 01:03:08;;;;;;;2.25;0.70;;;;;;;8.20;55.96;103526.34;5052257;28;20029;-68
2023/04/19 01:05:34;;;;;;;1.00;0.73;;;;;;;8.22;55.91;103531.63;5053397;28;20529;-68
2023/04/19 01:07:59;;;;;;;1.63;0.65;;;;;;;8.28;55.91;103528.47;5051963;28;20025;-69
2023/04/19 01:10:25;;;;;;;1.13;0.60;;;;;;;8.28;55.76;103533.84;5052358;28;20044;-68
2023/04/19 01:12:50;;;;;;;2.00;0.82;;;;;;;8.19;55.86;103513.06;5053341;28;20036;-68
2023/04/19 01:15:16;;;;;;;4.55;0.80;;;;;;;8.21;55.36;103513.78;5053082;28;20075;-68
2023/04/19 01:17:41;;;;;;;1.00;0.57;;;;;;;8.38;55.37;103534.88;5051802;28;20025;-68
2023/04/19 01:20:07;;;;;;;2.13;0.60;;;;;;;8.37;55.66;103541.16;5052690;28;20049;-68
2023/04/19 01:22:36;;;;;;;0.82;0.60;;;;;;;8.37;54.86;103540.31;5052328;28;20017;-69
2023/04/19 01:25:03;;;;;;;1.27;0.70;;;;;;;8.34;54.63;103533.34;5051482;28;20044;-69
2023/04/19 01:27:28;;;;;;;2.83;0.65;;;;;;;8.27;55.21;103547.34;5050859;28;20032;-68
2023/04/19 01:29:53;;;;;;;2.10;0.70;;;;;;;8.22;54.98;103545.03;5052199;28;20391;-68
2023/04/19 01:32:19;;;;;;;1.40;0.68;;;;;;;8.11;54.87;103542.28;5050572;28;20535;-68
2023/04/19 01:34:44;;;;;;;2.47;0.73;;;;;;;8.02;55.24;103543.84;5067214;28;20068;-68
2023/04/19 01:37:10;;;;;;;2.55;0.60;;;;;;;8.02;55.74;103561.78;5021560;28;20501;-68
2023/04/19 01:39:35;;;;;;;4.70;0.80;;;;;;;7.93;55.86;103561.47;5052322;28;20024;-68
2023/04/19 01:42:01;;;;;;;1.42;0.60;;;;;;;7.84;56.22;103556.78;5034798;28;20396;-68
2023/04/19 01:44:27;;;;;;;1.55;0.70;;;;;;;7.81;56.46;103551.66;5052693;28;20047;-68
2023/04/19 01:46:54;;;;;;;1.25;0.70;;;;;;;7.75;56.96;103552.13;5052628;28;20104;-68
2023/04/19 01:49:19;;;;;;;6.63;0.85;;;;;;;7.67;56.83;103544.63;5051024;28;20464;-68
2023/04/19 01:51:45;;;;;;;1.35;0.68;;;;;;;7.63;57.22;103539.63;5050824;28;20075;-68
2023/04/19 01:54:10;;;;;;;1.42;0.60;;;;;;;7.67;57.17;103559.88;5052959;28;20067;-68
2023/04/19 01:56:36;;;;;;;4.43;0.90;;;;;;;7.65;57.50;103543.03;5052084;28;20458;-68
2023/04/19 01:59:02;;;;;;;4.57;0.70;;;;;;;7.85;56.52;103547.81;5051962;28;20047;-68
2023/04/19 02:01:28;;;;;;;1.45;0.68;;;;;;;7.69;56.87;103532.00;5051841;28;20029;-68
2023/04/19 02:03:53;;;;;;;1.98;0.80;;;;;;;7.77;57.14;103551.03;5052657;28;20082;-68
2023/04/19 02:06:19;;;;;;;2.25;0.75;;;;;;;7.83;57.21;103538.16;5052431;28;20036;-68
2023/04/19 02:08:44;;;;;;;3.20;0.60;;;;;;;7.83;56.81;103539.00;5050703;28;20063;-68
2023/04/19 02:11:14;;;;;;;1.80;0.75;;;;;;;7.88;56.80;103552.94;5051225;28;20036;-68
2023/04/19 02:13:40;;;;;;;1.58;0.60;;;;;;;7.89;56.78;103541.22;5052279;28;20037;-68
2023/04/19 02:16:06;;;;;;;3.22;0.90;;;;;;;7.88;56.43;103538.66;5052505;28;20024;-68
2023/04/19 02:18:34;;;;;;;2.40;0.70;;;;;;;7.80;56.34;103543.75;5060958;28;20037;-69
2023/04/19 02:21:00;;;;;;;1.50;0.70;;;;;;;7.52;56.86;103522.50;5061939;28;20040;-68
2023/04/19 02:23:26;;;;;;;1.00;0.65;;;;;;;7.58;56.82;103544.44;5054343;28;20051;-69
2023/04/19 02:25:52;;;;;;;2.00;0.70;;;;;;;7.47;57.24;103548.78;5052611;28;20043;-68
2023/04/19 02:28:19;;;;;;;1.60;0.77;;;;;;;7.43;56.95;103533.03;5052365;28;20025;-68
2023/04/19 02:30:44;;;;;;;0.70;0.50;;;;;;;7.33;57.39;103538.22;5051337;28;20051;-68
2023/04/19 02:33:10;;;;;;;1.20;0.70;;;;;;;7.37;56.99;103531.66;5052547;28;20025;-68
2023/04/19 02:35:35;;;;;;;1.67;0.70;;;;;;;7.09;57.76;103499.81;5050793;28;20040;-68
2023/04/19 02:38:02;;;;;;;1.70;0.80;;;;;;;7.35;57.73;103532.72;5052357;28;20029;-68
2023/04/19 02:40:28;;;;;;;3.30;0.80;;;;;;;7.23;58.11;103505.88;5050530;28;20078;-68
2023/04/19 02:42:53;;;;;;;1.20;0.75;;;;;;;7.35;58.05;103535.41;5051954;28;20499;-68
2023/04/19 02:45:19;;;;;;;2.20;0.63;;;;;;;7.27;58.58;103530.63;5055841;28;20033;-68
2023/04/19 02:47:45;;;;;;;4.90;0.68;;;;;;;7.33;58.94;103534.69;5054956;28;20377;-68
2023/04/19 02:50:11;;;;;;;1.42;0.50;;;;;;;7.22;58.48;103500.66;5056201;28;20330;-68
2023/04/19 02:52:37;;;;;;;3.00;0.70;;;;;;;7.36;58.52;103516.56;5054648;28;20033;-68
2023/04/19 02:55:03;;;;;;;0.63;0.40;;;;;;;7.47;59.30;103526.50;5054478;28;20527;-68
2023/04/19 02:57:29;;;;;;;1.80;0.50;;;;;;;7.54;58.87;103514.34;5054184;28;20115;-68
2023/04/19 02:59:54;;;;;;;3.85;0.70;;;;;;;7.36;58.60;103484.41;5054102;28;20116;-68
2023/04/19 03:02:20;;;;;;;1.38;0.70;;;;;;;7.44;59.36;103514.16;5054406;28;20399;-68
2023/04/19 03:04:46;;;;;;;2.65;0.70;;;;;;;7.41;58.82;103509.03;5068534;28;20028;-68
2023/04/19 03:07:11;;;;;;;4.63;0.80;;;;;;;7.51;58.94;103518.09;5055611;28;20537;-68
2023/04/19 03:09:37;;;;;;;2.33;0.68;;;;;;;7.43;59.38;103515.16;5054323;28;20033;-68
2023/04/19 03:12:03;;;;;;;2.88;0.80;;;;;;;7.62;58.66;103509.31;5054713;28;20024;-68
2023/04/19 03:14:28;;;;;;;2.95;0.70;;;;;;;7.69;57.96;103518.59;5053708;28;20435;-68
2023/04/19 03:16:53;;;;;;;2.08;0.68;;;;;;;7.69;58.76;103518.59;5053120;28;20025;-68
2023/04/19 03:19:19;;;;;;;1.15;0.80;;;;;;;7.44;60.53;103524.03;5054092;28;20052;-68
2023/04/19 03:21:45;;;;;;;0.85;0.60;;;;;;;7.42;60.84;103524.16;5053412;28;20406;-68
2023/04/19 03:24:11;;;;;;;1.35;0.60;;;;;;;6.85;60.60;103416.75;5053381;28;20029;-67
2023/04/19 03:26:36;;;;;;;1.33;0.50;;;;;;;7.48;61.19;103522.84;5052570;28;20025;-68
2023/04/19 03:29:02;;;;;;;2.28;0.90;;;;;;;7.40;60.86;103518.03;5052929;28;20545;-68
2023/04/19 03:31:27;;;;;;;1.73;0.90;;;;;;;7.37;60.67;103515.59;5052335;28;20044;-68
2023/04/19 03:33:53;;;;;;;1.23;0.80;;;;;;;7.40;61.22;103525.22;5051525;28;20383;-68
2023/04/19 03:36:18;;;;;;;1.88;0.90;;;;;;;7.50;60.61;103528.94;5052672;28;20083;-68
2023/04/19 03:38:44;;;;;;;2.58;0.75;;;;;;;7.53;60.28;103520.69;5052471;28;20063;-68
2023/04/19 03:41:20;;;;;;;1.90;0.77;;;;;;;7.52;60.19;103511.81;5051873;28;20028;-68
2023/04/19 03:43:45;;;;;;;2.20;0.90;;;;;;;7.49;60.12;103514.69;5053696;28;20121;-68
2023/04/19 03:46:11;;;;;;;1.20;0.70;;;;;;;7.51;60.09;103517.25;5053485;28;20429;-68
2023/04/19 03:48:36;;;;;;;3.28;0.65;;;;;;;7.51;60.06;103510.06;5052540;28;20029;-68
2023/04/19 03:51:02;;;;;;;1.00;0.60;;;;;;;7.51;59.64;103507.38;5053415;28;20040;-68
2023/04/19 03:53:27;;;;;;;2.08;0.70;;;;;;;7.54;59.69;103509.84;5053213;28;20051;-68
2023/04/19 03:55:53;;;;;;;1.20;0.80;;;;;;;7.41;59.35;103479.56;5052077;28;20037;-68
2023/04/19 03:58:18;;;;;;;1.08;0.70;;;;;;;7.45;60.24;103506.97;5054024;28;20052;-67
2023/04/19 04:00:44;;;;;;;1.90;0.88;;;;;;;7.39;60.63;103507.47;5051886;28;20036;-66
2023/04/19 04:03:10;;;;;;;2.67;0.90;;;;;;;7.43;60.13;103501.75;5052572;28;20506;-68
2023/04/19 04:05:35;;;;;;;2.00;0.70;;;;;;;7.38;60.26;103503.03;5053754;28;20029;-71
2023/04/19 04:08:00;;;;;;;2.47;1.05;;;;;;;7.42;60.34;103499.19;5053443;28;20028;-67
2023/04/19 04:10:26;;;;;;;2.85;0.70;;;;;;;7.43;60.54;103501.75;5054107;28;20131;-69
2023/04/19 04:12:51;;;;;;;4.30;0.90;;;;;;;7.83;59.45;103496.13;5054001;28;20074;-69
2023/04/19 04:15:17;;;;;;;3.13;0.80;;;;;;;8.75;56.94;103507.88;5053711;28;20043;-69
2023/04/19 04:17:42;;;;;;;1.27;0.70;;;;;;;9.01;55.82;103496.88;5052143;28;20595;-69
2023/04/19 04:20:08;;;;;;;1.67;0.90;;;;;;;9.24;55.21;103511.13;5052974;28;20507;-69
2023/04/19 04:22:34;;;;;;;2.80;0.70;;;;;;;9.71;53.28;103487.59;5053532;28;20380;-67
2023/04/19 04:25:01;;;;;;;2.75;0.82;;;;;;;9.97;52.68;103507.78;5052635;28;20063;-67
2023/04/19 04:27:26;;;;;;;2.63;0.70;;;;;;;10.32;51.87;103512.03;5051266;28;20025;-68
2023/04/19 04:29:52;;;;;;;1.60;0.80;;;;;;;10.37;51.67;103499.03;5052386;28;20032;-67
2023/04/19 04:32:21;;;;;;;1.65;0.60;;;;;;;10.74;50.05;103480.53;5051657;28;20441;-68
2023/04/19 04:34:47;;;;;;;2.38;0.70;;;;;;;11.34;48.76;103496.75;5036147;28;20115;-69
2023/04/19 04:37:13;;;;;;;3.67;0.98;;;;;;;11.60;48.34;103474.69;5052885;28;20061;-68
2023/04/19 04:39:38;;;;;;;2.55;0.75;;;;;;;11.84;47.72;103493.16;5051966;28;20035;-68
2023/04/19 04:42:07;;;;;;;4.25;0.80;;;;;;;11.61;47.61;103479.91;5051397;28;20036;-69
2023/04/19 04:44:36;;;;;;;2.45;0.80;;;;;;;12.15;46.81;103491.16;5051386;28;20024;-69
2023/04/19 04:47:02;;;;;;;2.90;0.82;;;;;;;11.90;46.47;103496.16;5051231;28;20502;-69
2023/04/19 04:49:28;;;;;;;1.40;0.60;;;;;;;11.90;46.57;103495.31;5050150;28;20037;-69
2023/04/19 04:51:54;;;;;;;1.10;0.60;;;;;;;11.71;47.73;103494.25;5050635;28;20105;-70
2023/04/19 04:54:20;;;;;;;2.53;0.65;;;;;;;11.77;47.22;103488.31;5034342;28;20048;-69
2023/04/19 04:56:46;;;;;;;2.15;0.68;;;;;;;11.83;47.08;103486.91;5052785;28;20280;-70
2023/04/19 04:59:11;;;;;;;1.10;0.60;;;;;;;11.81;46.94;103480.78;5053202;28;20469;-70
2023/04/19 05:01:36;;;;;;;3.70;0.80;;;;;;;11.75;47.05;103502.91;5052871;28;20104;-70
2023/04/19 05:04:02;;;;;;;3.80;0.80;;;;;;;11.72;47.10;103501.38;5019208;28;20547;-71
2023/04/19 05:06:27;;;;;;;2.00;0.50;;;;;;;11.48;47.70;103493.66;5051720;28;20136;-70
2023/04/19 05:08:53;;;;;;;1.55;0.60;;;;;;;11.80;47.17;103503.38;5035043;28;20155;-71
2023/04/19 05:11:19;;;;;;;1.42;0.60;;;;;;;11.66;46.66;103507.34;5052658;28;20078;-70
2023/04/19 05:13:44;;;;;;;1.70;0.50;;;;;;;11.95;46.80;103510.09;5052553;28;20029;-70
2023/04/19 05:16:10;;;;;;;1.35;0.40;;;;;;;12.01;46.54;103508.66;5052625;28;20498;-71
2023/04/19 05:18:35;;;;;;;1.48;0.45;;;;;;;12.51;45.48;103510.28;5051044;28;20032;-70
2023/04/19 05:21:01;;;;;;;1.63;0.60;;;;;;;11.93;45.68;103486.94;5052705;28;20023;-70
2023/04/19 05:23:26;;;;;;;1.25;0.60;;;;;;;12.21;45.18;103491.44;5053075;28;20036;-71
2023/04/19 05:25:52;;;;;;;0.70;0.40;;;;;;;11.11;47.82;103492.59;5050765;28;20400;-71
2023/04/19 05:28:17;;;;;;;1.55;0.57;;;;;;;10.30;49.61;103514.00;5051762;28;20082;-71
2023/04/19 05:30:43;;;;;;;1.02;0.55;;;;;;;9.58;52.39;103509.25;5034081;28;20025;-70
2023/04/19 05:33:08;;;;;;;2.03;0.50;;;;;;;9.12;54.47;103470.00;5052440;28;20391;-70
2023/04/19 05:35:33;;;;;;;0.80;0.50;;;;;;;9.25;54.62;103505.66;5052778;28;20037;-70
2023/04/19 05:37:59;;;;;;;1.52;0.50;;;;;;;9.29;54.98;103509.78;5053168;28;20044;-70
2023/04/19 05:40:24;;;;;;;2.78;0.70;;;;;;;9.08;56.29;103498.94;5035071;28;20028;-70
2023/04/19 05:42:50;;;;;;;1.05;0.50;;;;;;;9.16;56.17;103511.75;5051557;28;20047;-70
2023/04/19 05:45:17;;;;;;;2.83;0.50;;;;;;;9.20;55.66;103498.94;5052446;28;20496;-71
2023/04/19 05:47:42;;;;;;;1.35;0.60;;;;;;;9.35;55.46;103498.53;5052579;28;20098;-70
2023/04/19 05:50:08;;;;;;;0.40;0.38;;;;;;;9.48;55.08;103497.56;5053738;28;20548;-70
2023/04/19 05:52:34;;;;;;;2.45;0.30;;;;;;;9.55;54.13;103488.84;5050233;28;20020;-71
2023/04/19 05:55:00;;;;;;;1.65;0.50;;;;;;;9.45;54.79;103495.97;5051990;28;20039;-71
2023/04/19 05:57:25;;;;;;;1.70;0.55;;;;;;;9.84;53.80;103499.88;5052320;28;20028;-71
2023/04/19 05:59:51;;;;;;;1.75;0.40;;;;;;;9.88;53.66;103497.78;5036876;28;20039;-71
2023/04/19 06:02:16;;;;;;;1.20;0.40;;;;;;;9.92;52.77;103501.91;5053700;28;20115;-71
2023/04/19 06:04:41;;;;;;;1.20;0.40;;;;;;;10.08;52.49;103493.41;5052205;28;20060;-71
2023/04/19 06:07:07;;;;;;;3.17;0.45;;;;;;;10.00;52.50;103498.56;5052382;28;20510;-71
2023/04/19 06:09:33;;;;;;;0.95;0.40;;;;;;;9.88;52.71;103487.88;5033038;28;20056;-71
2023/04/19 06:11:58;;;;;;;1.90;0.50;;;;;;;9.94;53.34;103496.44;5050301;28;20032;-71
2023/04/19 06:14:28;;;;;;;2.75;0.47;;;;;;;9.92;52.60;103504.59;5049020;28;20483;-71
2023/04/19 06:16:53;;;;;;;1.13;0.55;;;;;;;9.93;53.46;103498.22;5048493;28;20028;-71
2023/04/19 06:19:18;;;;;;;0.88;0.30;;;;;;;10.05;52.49;103499.91;5032234;28;20060;-71
2023/04/19 06:21:44;;;;;;;1.55;0.50;;;;;;;10.00;53.17;103502.13;5032059;28;20398;-71
2023/04/19 06:24:10;;;;;;;1.10;0.40;;;;;;;10.03;52.88;103495.63;5050772;28;20036;-71
2023/04/19 06:26:35;;;;;;;1.83;0.30;;;;;;;10.15;52.38;103499.13;5051862;28;20033;-71
2023/04/19 06:29:01;;;;;;;1.63;0.40;;;;;;;10.02;52.19;103481.31;5050154;28;20033;-71
2023/04/19 06:31:26;;;;;;;0.93;0.40;;;;;;;10.16;52.33;103498.97;5050688;28;20127;-71
2023/04/19 06:33:52;;;;;;;0.98;0.40;;;;;;;10.40;51.83;103487.13;5050286;28;20082;-71
2023/04/19 06:36:17;;;;;;;1.00;0.50;;;;;;;10.11;52.19;103495.84;5051010;28;20025;-71
2023/04/19 06:38:45;;;;;;;1.02;0.40;;;;;;;10.45;51.21;103501.91;5033697;28;20048;-71
2023/04/19 06:41:11;;;;;;;3.13;0.32;;;;;;;10.61;51.01;103493.38;5050180;28;20036;-71
2023/04/19 06:43:39;;;;;;;1.83;0.70;;;;;;;10.60;50.66;103497.06;5054931;28;20029;-71
2023/04/19 06:46:05;;;;;;;1.10;0.45;;;;;;;10.53;50.76;103485.97;5054176;28;20411;-71
2023/04/19 06:48:33;;;;;;;1.83;0.50;;;;;;;10.66;50.31;103485.75;5051702;28;20025;-71
2023/04/19 06:50:58;;;;;;;1.27;0.40;;;;;;;10.93;50.18;103497.78;5051185;28;20057;-71
2023/04/19 06:53:25;;;;;;;0.50;0.20;;;;;;;10.76;50.13;103488.47;5050461;28;20421;-71
2023/04/19 06:55:58;;;;;;;1.58;0.50;;;;;;;10.77;49.66;103471.34;5051049;28;20040;-71
2023/04/19 06:58:23;;;;;;;1.42;0.50;;;;;;;10.95;49.70;103487.69;5050716;28;20440;-71
2023/04/19 07:00:48;;;;;;;0.63;0.30;;;;;;;11.07;49.29;103486.63;5050535;28;20151;-71
2023/04/19 07:03:14;;;;;;;2.50;0.40;;;;;;;11.33;48.92;103476.19;5051850;28;20039;-70
2023/04/19 07:05:40;;;;;;;2.22;0.40;;;;;;;11.41;48.58;103478.19;5050701;28;20095;-71
2023/04/19 07:08:05;;;;;;;3.17;0.50;;;;;;;11.81;48.38;103472.69;5051703;28;20505;-71
2023/04/19 07:10:31;;;;;;;4.88;0.40;;;;;;;11.63;48.11;103472.56;5051366;28;20041;-71
2023/04/19 07:12:57;;;;;;;2.15;0.20;;;;;;;11.40;48.19;103466.56;5033689;28;20032;-71
2023/04/19 07:15:22;;;;;;;0.43;0.30;;;;;;;11.22;48.61;103471.75;5050525;28;20419;-71
2023/04/19 07:17:48;;;;;;;1.10;0.40;;;;;;;11.35;48.17;103481.44;5033808;28;20519;-71
2023/04/19 07:20:13;;;;;;;0.85;0.20;;;;;;;11.42;47.93;103471.81;5050164;28;20049;-72
2023/04/19 07:22:39;;;;;;;3.08;0.43;;;;;;;11.77;48.06;103477.50;5052035;28;20072;-71
2023/04/19 07:25:05;;;;;;;1.67;0.38;;;;;;;11.85;48.24;103479.53;5048936;28;20424;-71
2023/04/19 07:27:30;;;;;;;3.08;0.30;;;;;;;11.98;47.74;103484.66;5037784;28;20021;-71
2023/04/19 07:29:55;;;;;;;3.63;0.40;;;;;;;11.76;48.04;103475.81;5058121;28;20033;-71
2023/04/19 07:32:21;;;;;;;1.95;0.30;;;;;;;11.59;48.31;103449.56;5054040;28;20039;-72
2023/04/19 07:34:46;;;;;;;2.47;0.40;;;;;;;11.93;47.68;103471.59;5054234;28;20035;-72
2023/04/19 07:37:12;;;;;;;0.63;0.20;;;;;;;12.36;47.10;103472.09;5055153;28;20033;-71
2023/04/19 07:39:38;;;;;;;0.75;0.20;;;;;;;12.53;46.69;103465.09;5055882;28;20493;-71
2023/04/19 07:42:04;;;;;;;0.80;0.22;;;;;;;12.43;45.96;103435.41;5056341;28;20484;-71
2023/04/19 07:44:29;;;;;;;1.02;0.40;;;;;;;12.60;45.71;103468.91;5055252;28;20029;-71
2023/04/19 07:46:55;;;;;;;1.65;0.30;;;;;;;12.52;45.15;103466.94;5053544;28;20032;-71
2023/04/19 07:49:20;;;;;;;0.90;0.40;;;;;;;12.35;45.78;103456.88;5053320;28;20033;-71
2023/04/19 07:51:46;;;;;;;0.98;0.30;;;;;;;12.70;45.20;103457.06;5054880;28;20032;-71
2023/04/19 07:54:11;;;;;;;0.82;0.30;;;;;;;12.63;45.26;103458.66;5053512;28;20033;-72
2023/04/19 07:56:37;;;;;;;0.50;0.30;;;;;;;12.87;45.12;103458.13;5054260;28;20045;-71
2023/04/19 07:59:03;;;;;;;0.98;0.30;;;;;;;12.73;44.88;103457.78;5053084;28;20016;-72
2023/04/19 08:01:29;;;;;;;2.05;0.40;;;;;;;12.69;45.18;103457.22;5054081;28;20040;-71
2023/04/19 08:03:55;;;;;;;1.25;0.40;;;;;;;12.83;44.39;103453.19;5052977;28;20029;-71
2023/04/19 08:06:20;;;;;;;1.55;0.40;;;;;;;12.97;45.00;103444.56;5052893;28;20044;-71
2023/04/19 08:08:47;;;;;;;1.38;0.30;;;;;;;13.33;45.23;103463.59;5060427;28;20032;-71
2023/04/19 08:11:12;;;;;;;1.05;0.40;;;;;;;13.12;44.82;103459.28;5037204;28;20075;-71
2023/04/19 08:13:38;;;;;;;0.90;0.35;;;;;;;12.98;44.69;103454.38;5054342;28;20032;-71
2023/04/19 08:16:04;;;;;;;1.17;0.43;;;;;;;13.08;44.35;103446.22;5054459;28;20021;-71
2023/04/19 08:18:30;;;;;;;2.50;0.40;;;;;;;13.41;43.92;103452.88;5036498;28;20432;-71
2023/04/19 08:20:56;;;;;;;1.08;0.40;;;;;;;13.34;43.68;103432.84;5054076;28;20091;-71
2023/04/19 08:23:23;;;;;;;1.85;0.32;;;;;;;13.28;43.41;103460.50;5054135;28;20059;-71
2023/04/19 08:25:48;;;;;;;1.10;0.40;;;;;;;13.48;42.87;103443.16;5053019;28;20057;-71
2023/04/19 08:28:14;;;;;;;0.82;0.45;;;;;;;13.65;43.12;103437.91;5054175;28;20558;-71
2023/04/19 08:30:40;;;;;;;0.70;0.30;;;;;;;13.84;42.62;103448.53;5052764;28;20037;-71
2023/04/19 08:33:05;;;;;;;0.98;0.40;;;;;;;14.02;42.31;103440.41;5053866;28;20056;-71
2023/04/19 08:35:31;;;;;;;0.80;0.30;;;;;;;13.87;42.13;103448.22;5035838;28;20033;-71
2023/04/19 08:37:56;;;;;;;0.93;0.40;;;;;;;13.74;42.24;103447.75;5035877;28;20033;-71
2023/04/19 08:40:22;;;;;;;2.00;0.38;;;;;;;13.91;42.26;103416.25;5052294;28;20304;-72
2023/04/19 08:42:48;;;;;;;0.80;0.45;;;;;;;13.83;42.33;103444.97;5053953;28;20446;-71
2023/04/19 08:45:15;;;;;;;2.40;0.40;;;;;;;14.10;41.80;103437.75;5059344;28;20029;-71
2023/04/19 08:47:41;;;;;;;0.88;0.40;;;;;;;13.94;42.03;103438.50;5051399;28;20040;-71
2023/04/19 08:50:07;;;;;;;0.95;0.38;;;;;;;14.06;41.57;103431.78;5053837;28;20101;-71
2023/04/19 08:52:35;;;;;;;0.93;0.40;;;;;;;14.02;42.07;103408.75;5053572;28;20029;-72
2023/04/19 08:55:05;;;;;;;0.70;0.30;;;;;;;14.22;41.86;103413.97;5052525;28;20031;-71
2023/04/19 08:57:31;;;;;;;1.15;0.35;;;;;;;14.36;41.92;103410.66;5057083;28;20480;-71
2023/04/19 08:59:59;;;;;;;0.50;0.30;;;;;;;14.85;41.15;103404.66;5053689;28;20024;-71
2023/04/19 09:02:25;;;;;;;0.85;0.40;;;;;;;14.71;40.86;103414.28;5054354;28;20064;-71
2023/04/19 09:04:50;;;;;;;1.20;0.40;;;;;;;14.49;41.29;103419.19;5053383;28;20053;-71
2023/04/19 09:07:26;;;;;;;2.60;0.30;;;;;;;14.57;39.38;103404.91;5054104;28;20031;-71
2023/04/19 09:10:08;;;;;;;0.70;0.40;;;;;;;15.03;39.55;103391.81;5053816;28;20025;-71
2023/04/19 09:12:34;;;;;;;0.98;0.52;;;;;;;14.75;39.42;103392.09;5052885;28;20115;-71
2023/04/19 09:15:07;;;;;;;0.47;0.30;;;;;;;14.97;39.72;103373.53;5054017;28;20028;-71
2023/04/19 09:17:33;;;;;;;1.02;0.40;;;;;;;15.10;38.87;103373.03;5052278;28;20029;-71
2023/04/19 09:19:59;;;;;;;0.98;0.47;;;;;;;15.43;38.65;103372.09;5053891;28;20049;-71
2023/04/19 09:22:25;;;;;;;2.67;0.40;;;;;;;15.13;39.23;103380.84;5053435;28;20037;-71
2023/04/19 09:24:51;;;;;;;1.58;0.30;;;;;;;15.37;38.60;103364.63;5052035;28;20262;-71
2023/04/19 09:27:32;;;;;;;1.58;0.43;;;;;;;15.19;38.27;103375.59;5053300;28;20472;-72
2023/04/19 09:30:03;;;;;;;0.75;0.35;;;;;;;15.20;37.70;103366.47;5054047;28;20045;-71
2023/04/19 09:32:43;;;;;;;1.08;0.45;;;;;;;15.66;37.98;103357.81;5052878;28;20028;-71
2023/04/19 09:35:09;;;;;;;0.70;0.40;;;;;;;15.28;37.89;103357.47;5053116;28;20387;-71
2023/04/19 09:37:35;;;;;;;0.88;0.40;;;;;;;15.58;35.89;103355.13;5035106;28;20047;-71
2023/04/19 09:40:20;;;;;;;0.60;0.40;;;;;;;15.53;35.14;103352.91;5053173;28;20032;-71
2023/04/19 09:42:46;;;;;;;2.30;0.38;;;;;;;15.42;34.01;103355.94;5052726;28;20132;-71
2023/04/19 09:45:12;;;;;;;0.40;0.30;;;;;;;15.21;34.39;103323.91;5052705;28;20192;-71
2023/04/19 09:47:37;;;;;;;1.67;0.40;;;;;;;15.41;34.08;103346.97;5051251;28;20488;-71
2023/04/19 09:50:10;;;;;;;0.55;0.30;;;;;;;15.30;32.88;103336.47;5038794;28;20376;-71
2023/04/19 09:52:36;;;;;;;0.88;0.38;;;;;;;15.55;33.69;103314.75;5051270;28;20043;-71
2023/04/19 09:55:05;;;;;;;0.77;0.30;;;;;;;15.04;33.63;103315.75;5035048;28;20153;-71
2023/04/19 09:57:32;;;;;;;3.67;0.32;;;;;;;15.54;33.53;103334.75;5052209;28;20033;-71
2023/04/19 09:59:59;;;;;;;0.90;0.30;;;;;;;15.29;32.36;103332.03;5052716;28;20571;-71
2023/04/19 10:02:30;;;;;;;1.50;0.32;;;;;;;15.47;32.95;103332.72;5050459;28;20040;-71
2023/04/19 10:04:57;;;;;;;0.80;0.35;;;;;;;15.40;32.97;103329.00;5050342;28;20461;-71
2023/04/19 10:07:23;;;;;;;0.88;0.45;;;;;;;15.58;33.28;103307.09;5051340;28;20039;-71
2023/04/19 10:09:50;;;;;;;0.85;0.40;;;;;;;15.22;33.07;103309.31;5051414;28;20052;-71
2023/04/19 10:12:16;;;;;;;2.03;0.40;;;;;;;15.70;32.80;103318.50;5051122;28;20116;-71
2023/04/19 10:14:42;;;;;;;0.40;0.35;;;;;;;15.42;33.09;103320.69;5052726;28;20067;-71
2023/04/19 10:17:08;;;;;;;0.60;0.40;;;;;;;15.83;32.59;103307.97;5050965;28;20093;-71
2023/04/19 10:19:36;;;;;;;1.70;0.40;;;;;;;15.64;32.35;103292.00;5050619;28;20045;-71
2023/04/19 10:22:05;;;;;;;0.95;0.50;;;;;;;15.55;32.68;103277.59;5052246;28;20403;-71
2023/04/19 10:24:32;;;;;;;1.45;0.45;;;;;;;16.08;32.50;103321.47;5052167;28;20194;-71
2023/04/19 10:27:13;;;;;;;1.00;0.30;;;;;;;15.96;32.19;103310.97;5051241;28;20105;-72
2023/04/19 10:30:02;;;;;;;1.45;0.40;;;;;;;15.41;32.91;103298.13;5053000;28;20500;-72
2023/04/19 10:32:29;;;;;;;0.95;0.40;;;;;;;15.49;32.54;103305.41;5051317;28;20025;-71
2023/04/19 10:35:02;;;;;;;2.28;0.40;;;;;;;15.87;32.34;103301.16;5050735;28;20033;-71
2023/04/19 10:37:30;;;;;;;0.80;0.47;;;;;;;15.73;32.51;103280.16;5052377;28;20040;-71
2023/04/19 10:39:55;;;;;;;1.60;0.40;;;;;;;16.26;32.33;103308.50;5035367;28;20344;-72
2023/04/19 10:42:21;;;;;;;1.20;0.40;;;;;;;16.03;33.03;103304.88;5050660;28;20037;-71
2023/04/19 10:45:24;;;;;;;2.47;0.40;;;;;;;16.01;33.11;103288.72;5051849;28;20119;-71
2023/04/19 10:47:50;;;;;;;0.43;0.40;;;;;;;15.99;32.45;103279.88;5051097;28;20036;-71
2023/04/19 10:50:17;;;;;;;0.50;0.20;;;;;;;16.29;32.66;103281.00;5036527;28;20075;-71
2023/04/19 10:52:42;;;;;;;2.28;0.38;;;;;;;16.36;32.45;103286.56;5051902;28;20115;-72
2023/04/19 10:55:08;;;;;;;1.73;0.30;;;;;;;16.36;32.17;103283.84;5053006;28;20064;-71
2023/04/19 10:58:05;;;;;;;0.98;0.60;;;;;;;16.60;31.43;103275.56;5052189;28;20131;-71
2023/04/19 11:00:32;;;;;;;0.65;0.50;;;;;;;16.83;31.58;103272.06;5052497;28;20029;-71
2023/04/19 11:03:37;;;;;;;0.65;0.40;;;;;;;16.47;32.27;103269.00;5051858;28;20121;-71
2023/04/19 11:06:20;;;;;;;0.88;0.55;;;;;;;16.23;32.13;103264.56;5054279;28;20116;-71
2023/04/19 11:08:46;;;;;;;3.22;0.30;;;;;;;16.39;32.29;103265.31;5077340;28;20088;-72
2023/04/19 11:11:14;;;;;;;2.55;0.50;;;;;;;16.36;31.87;103248.53;5060721;28;20377;-71
2023/04/19 11:13:42;;;;;;;1.10;0.40;;;;;;;16.49;32.01;103261.50;5055827;28;20409;-71
2023/04/19 11:16:08;;;;;;;1.25;0.70;;;;;;;16.79;32.16;103255.25;5055623;28;20036;-71
2023/04/19 11:18:33;;;;;;;1.30;0.63;;;;;;;16.95;31.07;103262.41;5054059;28;20029;-71
2023/04/19 11:21:00;;;;;;;3.88;0.60;;;;;;;16.93;31.06;103259.06;5037883;28;20102;-71
2023/04/19 11:23:25;;;;;;;2.53;0.60;;;;;;;17.10;30.98;103246.16;5054339;28;20070;-71
2023/04/19 11:25:54;;;;;;;2.65;0.50;;;;;;;17.02;31.20;103216.31;5053591;28;20116;-71
2023/04/19 11:28:23;;;;;;;2.80;0.40;;;;;;;17.09;31.45;103239.88;5054345;28;20107;-71